Log in  \/ 
x
x

Palomar Operations

YOUR "PLUS ONE" KEY GOES IN THE COVERED KEY LOCK ON THE LEFT HAND SIDE OF THE DOOR. 

Inside is a setup similar to MYF and SEE, the Frasca is on line too. The office has Wifi and it is not protected, so your Ipad should work fine. We have one new computer and printer on line now and we will have a copier and 2nd computer on line in a few weeks.

Also, the DA40 465DS and SR22 N1490C key and binder has been relocated to the office, the binder is on the desk next to the door, please remember to put it back at the end of the flight. 

Any questions let me know.

ENJOY!

Dave Eby

View the embedded image gallery online at:
http://www.plusoneflyers.org/locations/palomar#sigProId80b44b50c8

Additional info
  • Operations Officer: Dave Eby
  • Phone Number: 619-279-7499
  • E-Mail: crqops@plusoneflyers.org
Comments
  • No comments found

Leave your comments

0 Character restriction
Your text should be more than 10 characters
terms and condition.
Special Instructions

Use your Plus One Flyers key to gain access to the office.  The lock is to the left of the front door.  Put your Plus One key in, turn it, push the door, then return the lock back to the vertical position and remove your key.

Palomar Weather

[source: ADDS]
METAR
KCRQ 200153Z AUTO 28004KT 10SM OVC013 19/16 A2991 RMK AO2 SLP124 T01940161 =
TAF
KCRQ 200016Z 2000/2024 VRB04KT P6SM OVC012 FM202000 25009KT P6SM SCT015 =
SR / SS: 13:16 / 02:28 UTC ( 2017-08-20)

Palomar Operations Map